Time;durP1;ratioP1;P1;durP2;ratioP2;P2;SDS_P1;SDS_P2;PMS_P1;PMS_P2;Temp;Humidity;BMP_temperature;BMP_pressure;BME280_temperature;BME280_humidity;BME280_pressure;Samples;Min_cycle;Max_cycle;Signal;HPM_P1;HPM_P2
2023/06/25 00:02:08;;;;;;;6.87;6.43;;;19.70;99.90;;;;;;5007577;28;20258;-86
2023/06/25 00:04:34;;;;;;;6.40;5.80;;;19.80;99.90;;;;;;5003592;28;20957;-84
2023/06/25 00:07:00;;;;;;;7.40;6.10;;;19.70;99.90;;;;;;5004780;28;20200;-83
2023/06/25 00:09:25;;;;;;;5.77;5.37;;;19.70;99.90;;;;;;5001641;28;20864;-84
2023/06/25 00:11:51;;;;;;;7.27;6.57;;;19.70;99.90;;;;;;5004563;28;20555;-81
2023/06/25 00:14:17;;;;;;;6.20;5.90;;;19.70;99.90;;;;;;5000776;28;20223;-84
2023/06/25 00:16:42;;;;;;;6.07;5.50;;;19.70;99.90;;;;;;4980258;28;20180;-83
2023/06/25 00:19:08;;;;;;;7.30;6.90;;;19.70;99.90;;;;;;4998601;28;20207;-84
2023/06/25 00:21:34;;;;;;;6.37;5.97;;;19.60;99.90;;;;;;4997415;28;20667;-85
2023/06/25 00:23:59;;;;;;;6.70;6.30;;;19.60;99.90;;;;;;5000754;28;20509;-83
2023/06/25 00:26:27;;;;;;;8.43;7.73;;;19.70;99.90;;;;;;4997360;28;20582;-85
2023/06/25 00:28:53;;;;;;;5.67;5.37;;;19.70;99.90;;;;;;5004883;28;20192;-84
2023/06/25 00:31:18;;;;;;;7.20;6.80;;;19.60;99.90;;;;;;5001595;28;21246;-85
2023/06/25 00:33:44;;;;;;;6.50;6.20;;;19.50;99.90;;;;;;4998921;28;20547;-85
2023/06/25 00:36:10;;;;;;;6.90;6.33;;;19.40;99.90;;;;;;5002729;28;20247;-85
2023/06/25 00:38:39;;;;;;;7.43;7.07;;;19.40;99.90;;;;;;5007007;28;20428;-84
2023/06/25 00:41:10;;;;;;;7.03;6.53;;;19.30;99.90;;;;;;5003427;28;20960;-83
2023/06/25 00:43:41;;;;;;;6.87;6.47;;;19.30;99.90;;;;;;5007328;28;20467;-84
2023/06/25 00:46:12;;;;;;;7.17;6.77;;;19.20;99.90;;;;;;4995941;28;20456;-84
2023/06/25 00:48:40;;;;;;;7.20;6.50;;;19.20;99.90;;;;;;4994646;28;20452;-84
2023/06/25 00:51:05;;;;;;;8.50;7.60;;;19.20;99.90;;;;;;5001020;28;20449;-84
2023/06/25 00:53:34;;;;;;;6.87;6.33;;;19.10;99.90;;;;;;4994963;28;20435;-84
2023/06/25 00:56:00;;;;;;;7.07;6.73;;;19.10;99.90;;;;;;4993848;28;20559;-84
2023/06/25 00:58:26;;;;;;;7.07;6.57;;;19.00;99.90;;;;;;5008281;28;20489;-84
2023/06/25 01:00:56;;;;;;;13.67;7.00;;;19.10;99.90;;;;;;4996933;28;20710;-84
2023/06/25 01:03:37;;;;;;;6.47;6.13;;;19.00;99.90;;;;;;4997923;28;20459;-85
2023/06/25 01:06:19;;;;;;;7.13;6.53;;;19.00;99.90;;;;;;5000296;28;20976;-83
2023/06/25 01:08:50;;;;;;;7.00;6.60;;;19.00;99.90;;;;;;5004196;28;20502;-84
2023/06/25 01:11:16;;;;;;;6.27;5.87;;;19.00;99.90;;;;;;5005420;28;20558;-84
2023/06/25 01:13:42;;;;;;;7.50;7.00;;;19.00;99.90;;;;;;4997378;28;20419;-84
2023/06/25 01:16:08;;;;;;;6.67;6.10;;;19.00;99.90;;;;;;5003318;28;20455;-85
2023/06/25 01:18:39;;;;;;;7.43;6.83;;;19.00;99.90;;;;;;5019056;28;20438;-82
2023/06/25 01:21:06;;;;;;;6.63;6.30;;;19.00;99.90;;;;;;5014226;28;20200;-83
2023/06/25 01:23:32;;;;;;;7.47;6.93;;;19.10;99.90;;;;;;5001722;28;20787;-85
2023/06/25 01:25:57;;;;;;;7.67;7.17;;;19.00;99.90;;;;;;4997761;28;20460;-85
2023/06/25 01:28:23;;;;;;;5.93;5.73;;;19.00;99.90;;;;;;5006719;28;20431;-84
2023/06/25 01:30:52;;;;;;;6.73;6.37;;;19.10;99.90;;;;;;5028194;28;20275;-85
2023/06/25 01:33:19;;;;;;;16.20;7.13;;;19.10;99.90;;;;;;5013029;28;20224;-84
2023/06/25 01:35:45;;;;;;;6.93;6.43;;;19.00;99.90;;;;;;5011761;28;20850;-84
2023/06/25 01:38:10;;;;;;;6.20;6.00;;;19.00;99.90;;;;;;5003527;28;20451;-85
2023/06/25 01:40:37;;;;;;;7.07;6.63;;;18.90;99.90;;;;;;5004799;28;20474;-84
2023/06/25 01:43:02;;;;;;;7.27;6.60;;;18.80;99.90;;;;;;5004490;28;20172;-85
2023/06/25 01:45:28;;;;;;;7.47;6.97;;;18.80;99.90;;;;;;5004541;28;20494;-84
2023/06/25 01:47:53;;;;;;;6.60;6.23;;;18.80;99.90;;;;;;5003634;28;20876;-85
2023/06/25 01:50:19;;;;;;;7.37;6.77;;;18.80;99.90;;;;;;4996835;28;20193;-85
2023/06/25 01:52:44;;;;;;;6.77;6.27;;;18.90;99.90;;;;;;5006531;28;20701;-84
2023/06/25 01:55:10;;;;;;;7.67;7.10;;;18.90;99.90;;;;;;5004745;28;20184;-84
2023/06/25 01:57:36;;;;;;;7.23;6.73;;;18.90;99.90;;;;;;5002820;28;20189;-85
2023/06/25 02:00:01;;;;;;;6.03;5.60;;;18.90;99.90;;;;;;4996490;28;20247;-84
2023/06/25 02:02:28;;;;;;;7.87;7.37;;;19.00;99.90;;;;;;4998012;28;20184;-84
2023/06/25 02:04:54;;;;;;;7.77;7.20;;;18.90;99.90;;;;;;4988717;28;20523;-86
2023/06/25 02:07:19;;;;;;;7.70;7.10;;;18.90;99.90;;;;;;5005657;28;20526;-84
2023/06/25 02:09:45;;;;;;;7.87;7.33;;;18.90;99.90;;;;;;5001557;28;20220;-85
2023/06/25 02:12:10;;;;;;;7.47;7.07;;;18.80;99.90;;;;;;4997252;28;20216;-85
2023/06/25 02:14:36;;;;;;;7.07;6.60;;;18.90;99.90;;;;;;5001652;28;20722;-85
2023/06/25 02:17:01;;;;;;;7.10;6.67;;;18.90;99.90;;;;;;4999036;28;20223;-85
2023/06/25 02:19:27;;;;;;;7.17;6.77;;;18.90;99.90;;;;;;5004856;28;20270;-84
2023/06/25 02:21:53;;;;;;;6.90;6.60;;;18.80;99.90;;;;;;4995181;28;20668;-85
2023/06/25 02:24:18;;;;;;;8.97;7.63;;;18.80;99.90;;;;;;4999009;28;20173;-84
2023/06/25 02:26:44;;;;;;;7.17;6.80;;;18.70;99.90;;;;;;4999890;28;20211;-84
2023/06/25 02:29:09;;;;;;;9.90;7.43;;;18.60;99.90;;;;;;5001829;28;20181;-84
2023/06/25 02:31:35;;;;;;;8.10;7.60;;;18.60;99.90;;;;;;4989289;28;20229;-83
2023/06/25 02:34:00;;;;;;;8.83;8.17;;;18.50;99.90;;;;;;4990350;28;20263;-84
2023/06/25 02:36:26;;;;;;;7.20;6.70;;;18.50;99.90;;;;;;4992190;28;20208;-84
2023/06/25 02:38:51;;;;;;;7.57;7.17;;;18.40;99.90;;;;;;4985458;28;20296;-84
2023/06/25 02:41:17;;;;;;;7.03;6.57;;;18.40;99.90;;;;;;4988256;28;20981;-83
2023/06/25 02:43:42;;;;;;;10.13;7.67;;;18.40;99.90;;;;;;4992322;28;20411;-84
2023/06/25 02:46:08;;;;;;;7.07;6.67;;;18.40;99.90;;;;;;4985761;28;20224;-84
2023/06/25 02:48:36;;;;;;;8.07;7.57;;;18.40;99.90;;;;;;4993156;28;20200;-84
2023/06/25 02:51:02;;;;;;;8.47;7.70;;;18.40;99.90;;;;;;4984121;28;20197;-84
2023/06/25 02:53:27;;;;;;;8.07;7.53;;;18.40;99.90;;;;;;4984314;28;20436;-85
2023/06/25 02:55:53;;;;;;;8.13;7.33;;;18.40;99.90;;;;;;4994652;28;20432;-84
2023/06/25 02:58:19;;;;;;;7.10;6.80;;;18.40;99.90;;;;;;4987657;28;20201;-84
2023/06/25 03:00:44;;;;;;;7.60;7.10;;;18.30;99.90;;;;;;4989725;28;20209;-85
2023/06/25 03:03:11;;;;;;;7.87;7.27;;;18.20;99.90;;;;;;4984611;28;20467;-85
2023/06/25 03:05:36;;;;;;;8.70;8.00;;;18.30;99.90;;;;;;4986717;28;20181;-84
2023/06/25 03:08:03;;;;;;;7.93;7.20;;;18.30;99.90;;;;;;4982210;28;20458;-83
2023/06/25 03:10:30;;;;;;;7.77;7.23;;;18.30;99.90;;;;;;4982385;28;20192;-84
2023/06/25 03:12:56;;;;;;;7.67;7.20;;;18.30;99.90;;;;;;4981568;28;20449;-84
2023/06/25 03:15:22;;;;;;;7.43;6.93;;;18.30;99.90;;;;;;4985840;28;20935;-84
2023/06/25 03:17:48;;;;;;;7.33;6.83;;;18.30;99.90;;;;;;4978935;28;20494;-84
2023/06/25 03:20:14;;;;;;;7.83;7.43;;;18.20;99.90;;;;;;4985874;28;20209;-84
2023/06/25 03:22:40;;;;;;;7.30;6.97;;;18.30;99.90;;;;;;4978628;28;20451;-85
2023/06/25 03:25:06;;;;;;;7.90;7.30;;;18.20;99.90;;;;;;4993561;28;20953;-85
2023/06/25 03:27:33;;;;;;;8.13;7.73;;;18.20;99.90;;;;;;4980629;28;20495;-84
2023/06/25 03:29:59;;;;;;;7.90;7.40;;;18.10;99.90;;;;;;4995005;28;20490;-85
2023/06/25 03:32:25;;;;;;;7.80;7.30;;;18.00;99.90;;;;;;4985123;28;20452;-84
2023/06/25 03:34:50;;;;;;;7.60;7.20;;;18.00;99.90;;;;;;4987871;28;20189;-85
2023/06/25 03:37:16;;;;;;;11.13;7.27;;;18.10;99.90;;;;;;4986398;28;20296;-84
2023/06/25 03:39:42;;;;;;;8.07;7.40;;;18.10;99.90;;;;;;4983182;28;20305;-83
2023/06/25 03:42:07;;;;;;;8.37;7.80;;;17.90;99.90;;;;;;4988622;28;20252;-83
2023/06/25 03:44:33;;;;;;;7.70;7.13;;;17.80;99.90;;;;;;4990642;28;20215;-83
2023/06/25 03:46:58;;;;;;;8.00;7.47;;;17.90;99.90;;;;;;4985885;28;20247;-84
2023/06/25 03:49:24;;;;;;;7.30;7.00;;;18.00;99.90;;;;;;4989254;28;20269;-84
2023/06/25 03:51:49;;;;;;;8.50;7.90;;;18.10;99.90;;;;;;4984345;28;20201;-85
2023/06/25 03:54:15;;;;;;;7.90;7.50;;;17.90;99.90;;;;;;4987843;28;20263;-84
2023/06/25 03:56:41;;;;;;;8.00;7.60;;;17.80;99.90;;;;;;4979533;28;20263;-85
2023/06/25 03:59:06;;;;;;;7.93;7.53;;;17.90;99.90;;;;;;4984351;28;20212;-84
2023/06/25 04:01:32;;;;;;;8.67;8.17;;;18.00;99.90;;;;;;4981353;28;20200;-85
2023/06/25 04:03:57;;;;;;;8.30;7.77;;;18.00;99.90;;;;;;4985422;28;20251;-84
2023/06/25 04:06:23;;;;;;;7.90;7.27;;;18.00;99.90;;;;;;4983924;28;20212;-84
2023/06/25 04:08:48;;;;;;;7.30;6.80;;;18.00;99.90;;;;;;4987401;28;20268;-84
2023/06/25 04:11:14;;;;;;;8.70;8.10;;;18.10;99.90;;;;;;4982021;28;20200;-84
2023/06/25 04:13:39;;;;;;;8.00;7.50;;;18.30;99.90;;;;;;4986609;28;20189;-84
2023/06/25 04:16:09;;;;;;;7.80;7.37;;;18.40;99.90;;;;;;4980531;28;20262;-84
2023/06/25 04:18:37;;;;;;;6.87;6.47;;;18.40;99.90;;;;;;4985677;28;20619;-85
2023/06/25 04:21:03;;;;;;;7.80;7.10;;;18.40;99.90;;;;;;4982996;28;20475;-85
2023/06/25 04:23:29;;;;;;;7.40;6.87;;;18.50;99.90;;;;;;4983480;28;20930;-83
2023/06/25 04:25:54;;;;;;;8.20;7.60;;;18.60;99.90;;;;;;4976716;28;20217;-84
2023/06/25 04:28:20;;;;;;;7.53;7.00;;;18.60;99.90;;;;;;4982624;28;20716;-85
2023/06/25 04:30:45;;;;;;;7.97;7.50;;;18.60;99.90;;;;;;4979707;28;20581;-85
2023/06/25 04:33:11;;;;;;;8.37;7.77;;;18.80;99.90;;;;;;4998180;28;20185;-83
2023/06/25 04:35:36;;;;;;;7.63;7.13;;;18.80;99.90;;;;;;5002341;28;20267;-83
2023/06/25 04:38:02;;;;;;;7.33;6.73;;;18.90;99.90;;;;;;4997365;28;20687;-85
2023/06/25 04:40:28;;;;;;;7.73;7.30;;;19.10;99.90;;;;;;5000949;28;20820;-84
2023/06/25 04:42:54;;;;;;;7.40;6.93;;;19.30;99.90;;;;;;4998948;28;20216;-84
2023/06/25 04:45:20;;;;;;;7.87;7.33;;;19.60;99.90;;;;;;4986728;28;20438;-84
2023/06/25 04:47:45;;;;;;;6.57;6.20;;;19.80;99.90;;;;;;4997639;28;20192;-85
2023/06/25 04:50:11;;;;;;;7.10;6.70;;;19.90;99.90;;;;;;4997953;28;20184;-82
2023/06/25 04:52:36;;;;;;;7.67;7.27;;;20.10;99.90;;;;;;4996358;28;20216;-85
2023/06/25 04:55:02;;;;;;;8.47;7.73;;;20.30;99.90;;;;;;5003425;28;20652;-84
2023/06/25 04:57:28;;;;;;;8.43;7.63;;;20.70;99.90;;;;;;4999643;28;20635;-85
2023/06/25 04:59:53;;;;;;;6.87;6.57;;;21.10;99.90;;;;;;5003426;28;20213;-85
2023/06/25 05:02:19;;;;;;;8.10;7.60;;;21.40;99.90;;;;;;5001076;28;20816;-83
2023/06/25 05:04:44;;;;;;;7.10;6.60;;;21.70;99.90;;;;;;4998718;28;20877;-84
2023/06/25 05:07:10;;;;;;;6.50;6.30;;;22.10;99.90;;;;;;4996692;28;20231;-84
2023/06/25 05:09:36;;;;;;;7.50;7.10;;;22.50;99.90;;;;;;5004769;28;20216;-84
2023/06/25 05:12:03;;;;;;;6.47;6.27;;;23.00;99.90;;;;;;4993061;28;20476;-84
2023/06/25 05:14:28;;;;;;;7.70;7.10;;;23.40;99.90;;;;;;4999159;28;20216;-83
2023/06/25 05:16:54;;;;;;;7.30;6.80;;;23.60;99.90;;;;;;4998767;28;20468;-84
2023/06/25 05:19:21;;;;;;;7.57;7.07;;;23.50;99.90;;;;;;4997925;28;20185;-84
2023/06/25 05:21:47;;;;;;;6.47;6.27;;;23.70;99.90;;;;;;4994661;28;20875;-83
2023/06/25 05:24:13;;;;;;;8.23;7.63;;;23.70;99.90;;;;;;4998519;28;20439;-84
2023/06/25 05:26:38;;;;;;;7.57;6.97;;;23.90;99.90;;;;;;4999263;28;21737;-83
2023/06/25 05:29:04;;;;;;;6.87;6.67;;;24.10;99.90;;;;;;5005925;28;20196;-84
2023/06/25 05:31:29;;;;;;;6.80;6.30;;;24.30;99.90;;;;;;4980773;28;20308;-85
2023/06/25 05:33:58;;;;;;;7.90;7.30;;;24.60;99.90;;;;;;4995358;28;20271;-84
2023/06/25 05:36:24;;;;;;;6.93;6.53;;;24.80;99.90;;;;;;4986066;28;20181;-84
2023/06/25 05:38:49;;;;;;;6.67;6.40;;;24.80;99.90;;;;;;4985337;28;20973;-84
2023/06/25 05:41:15;;;;;;;6.60;6.30;;;25.20;99.90;;;;;;5007079;28;20233;-85
2023/06/25 05:43:40;;;;;;;6.87;6.37;;;25.50;99.90;;;;;;5004118;28;20256;-85
2023/06/25 05:46:11;;;;;;;6.60;6.40;;;25.90;99.90;;;;;;5005972;28;20244;-84
2023/06/25 05:48:38;;;;;;;7.10;6.70;;;26.10;99.90;;;;;;4996470;28;20744;-84
2023/06/25 05:51:04;;;;;;;6.60;6.20;;;26.30;99.90;;;;;;4991103;28;20951;-84
2023/06/25 05:53:38;;;;;;;6.20;5.90;;;26.60;99.90;;;;;;4982541;28;20452;-84
2023/06/25 05:56:04;;;;;;;7.03;6.57;;;26.90;99.90;;;;;;4985902;28;20719;-85
2023/06/25 05:58:29;;;;;;;7.30;6.90;;;27.00;99.90;;;;;;4981188;28;20440;-84
2023/06/25 06:00:55;;;;;;;7.00;6.60;;;27.40;99.20;;;;;;4981823;28;20489;-84
2023/06/25 06:03:20;;;;;;;6.50;6.30;;;27.80;97.90;;;;;;4981338;28;20822;-83
2023/06/25 06:05:46;;;;;;;7.00;6.40;;;27.90;96.80;;;;;;4984230;28;20178;-84
2023/06/25 06:08:12;;;;;;;7.40;6.80;;;28.00;96.40;;;;;;4986145;28;20424;-84
2023/06/25 06:10:37;;;;;;;7.10;6.80;;;28.00;95.50;;;;;;4989268;28;20193;-85
2023/06/25 06:13:03;;;;;;;7.57;7.17;;;28.60;95.30;;;;;;4984839;28;20238;-86
2023/06/25 06:15:28;;;;;;;6.10;6.00;;;29.10;93.30;;;;;;4988044;28;20192;-84
2023/06/25 06:17:54;;;;;;;7.27;6.80;;;29.40;92.00;;;;;;4994646;28;20216;-85
2023/06/25 06:20:19;;;;;;;7.33;6.20;;;29.60;90.20;;;;;;4988000;28;20575;-86
2023/06/25 06:22:45;;;;;;;6.67;6.47;;;29.30;90.30;;;;;;4983757;28;20212;-84
2023/06/25 06:25:10;;;;;;;6.33;6.13;;;29.70;90.00;;;;;;4990495;28;20212;-86
2023/06/25 06:27:36;;;;;;;6.77;6.57;;;29.80;89.60;;;;;;4987603;28;20950;-84
2023/06/25 06:30:02;;;;;;;6.40;6.10;;;29.90;87.60;;;;;;4995875;28;20303;-84
2023/06/25 06:32:27;;;;;;;6.77;6.40;;;30.20;83.70;;;;;;5007195;28;20807;-85
2023/06/25 06:34:53;;;;;;;7.30;6.97;;;30.40;84.20;;;;;;5014524;28;20204;-85
2023/06/25 06:37:18;;;;;;;7.23;6.93;;;30.80;81.40;;;;;;5015971;28;20210;-85
2023/06/25 06:39:44;;;;;;;6.50;6.03;;;31.30;78.30;;;;;;5018486;28;20205;-85
2023/06/25 06:42:09;;;;;;;6.70;6.43;;;31.70;74.50;;;;;;5019606;28;20501;-85
2023/06/25 06:44:35;;;;;;;7.03;6.73;;;31.40;73.90;;;;;;5017407;28;20193;-85
2023/06/25 06:47:00;;;;;;;6.37;6.03;;;31.50;74.30;;;;;;5013455;28;20205;-84
2023/06/25 06:49:26;;;;;;;6.53;6.13;;;31.90;72.90;;;;;;5016722;28;20219;-86
2023/06/25 06:51:52;;;;;;;7.03;6.37;;;32.30;71.30;;;;;;5021954;28;20252;-84
2023/06/25 06:54:17;;;;;;;6.07;5.97;;;32.70;69.40;;;;;;5000228;28;20189;-85
2023/06/25 06:56:43;;;;;;;6.50;6.30;;;33.30;66.10;;;;;;5015580;28;20212;-84
2023/06/25 06:59:08;;;;;;;6.27;6.00;;;33.70;61.60;;;;;;5012516;28;20280;-82
2023/06/25 07:01:34;;;;;;;6.67;6.37;;;34.10;60.10;;;;;;5009532;28;20252;-79
2023/06/25 07:04:00;;;;;;;5.43;5.23;;;34.30;58.10;;;;;;5008660;28;20189;-79
2023/06/25 07:06:25;;;;;;;6.33;6.23;;;34.40;57.40;;;;;;5009850;28;20192;-78
2023/06/25 07:08:51;;;;;;;6.73;6.50;;;34.40;56.90;;;;;;5008177;28;20212;-85
2023/06/25 07:11:18;;;;;;;6.30;6.10;;;34.50;55.30;;;;;;4999229;28;20227;-85
2023/06/25 07:13:44;;;;;;;6.33;6.13;;;35.00;54.30;;;;;;5013992;28;20435;-82
2023/06/25 07:16:10;;;;;;;6.70;6.33;;;35.40;52.40;;;;;;5010456;28;20443;-85
2023/06/25 07:18:36;;;;;;;6.97;6.40;;;35.20;52.80;;;;;;5015767;28;20504;-86
2023/06/25 07:21:02;;;;;;;5.87;5.77;;;35.30;52.60;;;;;;5011403;28;20216;-85
2023/06/25 07:23:27;;;;;;;6.67;6.47;;;35.40;51.90;;;;;;5002470;28;20205;-83
2023/06/25 07:25:53;;;;;;;7.13;6.73;;;35.90;51.30;;;;;;5000685;28;20463;-84
2023/06/25 07:28:19;;;;;;;6.10;5.90;;;36.10;50.50;;;;;;5005887;28;20184;-83
2023/06/25 07:30:45;;;;;;;6.40;6.20;;;35.80;49.70;;;;;;5006746;28;21135;-82
2023/06/25 07:33:10;;;;;;;6.23;6.13;;;35.50;49.60;;;;;;4984772;28;20315;-83
2023/06/25 07:35:36;;;;;;;6.20;6.00;;;36.00;49.30;;;;;;5003691;28;20223;-84
2023/06/25 07:38:01;;;;;;;6.13;6.00;;;36.40;47.80;;;;;;5005282;28;20599;-80
2023/06/25 07:40:27;;;;;;;6.40;6.20;;;36.40;47.90;;;;;;4998552;28;20706;-80
2023/06/25 07:42:52;;;;;;;6.43;6.13;;;35.80;47.90;;;;;;4996106;28;20267;-80
2023/06/25 07:45:18;;;;;;;7.20;6.90;;;36.00;47.30;;;;;;4992276;28;20200;-85
2023/06/25 07:47:44;;;;;;;6.00;5.90;;;36.40;46.40;;;;;;5014391;28;20238;-84
2023/06/25 07:50:10;;;;;;;6.33;6.00;;;36.50;46.20;;;;;;4999464;28;20204;-83
2023/06/25 07:52:35;;;;;;;5.77;5.67;;;36.70;46.50;;;;;;5007975;28;20423;-84
2023/06/25 07:55:02;;;;;;;5.50;5.37;;;37.10;46.00;;;;;;4999106;28;20193;-84
2023/06/25 07:57:27;;;;;;;5.50;5.50;;;37.20;45.40;;;;;;5008350;28;20185;-83
2023/06/25 07:59:53;;;;;;;6.23;6.00;;;36.70;45.00;;;;;;5005277;28;20873;-85
2023/06/25 08:02:19;;;;;;;5.83;5.67;;;37.20;44.80;;;;;;5013864;28;20385;-85
2023/06/25 08:04:44;;;;;;;5.73;5.43;;;37.60;44.40;;;;;;4991385;28;20251;-82
2023/06/25 08:07:10;;;;;;;5.73;5.30;;;37.20;44.60;;;;;;5009394;28;21263;-83
2023/06/25 08:09:36;;;;;;;5.00;5.00;;;37.40;43.50;;;;;;5004758;28;20201;-87
2023/06/25 08:12:01;;;;;;;5.50;5.40;;;37.20;43.20;;;;;;5000177;28;20200;-83
2023/06/25 08:14:27;;;;;;;5.27;5.17;;;37.00;43.20;;;;;;5002888;28;20229;-85
2023/06/25 08:16:52;;;;;;;5.47;5.23;;;37.20;42.90;;;;;;4998074;28;20607;-78
2023/06/25 08:19:18;;;;;;;5.60;5.50;;;37.20;43.00;;;;;;5001405;28;20195;-81
2023/06/25 08:21:44;;;;;;;6.17;6.07;;;37.10;42.80;;;;;;4998125;28;20189;-82
2023/06/25 08:24:09;;;;;;;5.80;5.53;;;37.00;42.60;;;;;;4993037;28;20221;-83
2023/06/25 08:26:35;;;;;;;6.13;5.73;;;37.70;42.70;;;;;;4998829;28;20203;-84
2023/06/25 08:29:01;;;;;;;5.77;5.67;;;37.50;42.60;;;;;;4998524;28;20603;-82
2023/06/25 08:31:26;;;;;;;5.27;5.17;;;38.40;42.60;;;;;;5004119;28;20842;-83
2023/06/25 08:33:52;;;;;;;5.53;5.43;;;38.60;40.90;;;;;;5000729;28;20918;-81
2023/06/25 08:36:17;;;;;;;5.40;5.30;;;38.40;41.20;;;;;;4988356;28;20271;-83
2023/06/25 08:38:43;;;;;;;6.10;5.80;;;37.90;41.20;;;;;;5000309;28;20210;-83
2023/06/25 08:43:45;;;;;;;5.77;5.67;;;38.40;41.20;;;;;;5206216;23;20321;-80
2023/06/25 08:46:11;;;;;;;5.43;5.33;;;38.90;40.60;;;;;;5001407;28;20527;-79
2023/06/25 08:48:38;;;;;;;5.00;4.90;;;39.10;40.10;;;;;;4993610;28;20526;-80
2023/06/25 08:51:08;;;;;;;5.63;5.47;;;39.20;39.90;;;;;;5003982;28;20278;-78
2023/06/25 08:53:35;;;;;;;5.50;5.50;;;39.10;39.80;;;;;;5001057;28;20447;-83
2023/06/25 08:56:02;;;;;;;5.90;5.80;;;39.10;40.10;;;;;;5002515;28;20510;-83
2023/06/25 08:58:29;;;;;;;5.13;5.03;;;38.90;40.00;;;;;;5004691;28;20423;-83
2023/06/25 09:00:54;;;;;;;6.00;5.80;;;39.30;39.80;;;;;;5002293;28;20450;-82
2023/06/25 09:03:20;;;;;;;5.53;5.43;;;39.00;39.40;;;;;;5005512;28;20510;-84
2023/06/25 09:05:55;;;;;;;4.83;4.83;;;39.10;38.50;;;;;;5002347;28;20196;-83
2023/06/25 09:08:25;;;;;;;5.37;5.27;;;38.90;38.90;;;;;;5001350;28;20525;-83
2023/06/25 09:10:52;;;;;;;4.77;4.67;;;39.20;39.10;;;;;;5021722;28;20471;-84
2023/06/25 09:13:26;;;;;;;5.07;5.07;;;39.60;39.00;;;;;;5018980;28;20522;-82
2023/06/25 09:15:59;;;;;;;5.20;5.20;;;39.70;37.90;;;;;;5012520;28;20530;-84
2023/06/25 09:18:24;;;;;;;5.70;5.60;;;39.90;38.40;;;;;;5007028;28;20435;-83
2023/06/25 09:20:54;;;;;;;5.00;4.80;;;39.80;37.90;;;;;;5020193;23;20490;-94
2023/06/25 09:23:23;;;;;;;5.77;5.57;;;39.50;37.50;;;;;;5009041;28;20212;-90
2023/06/25 09:25:53;;;;;;;5.33;5.13;;;39.30;37.50;;;;;;4995527;28;20462;-93
2023/06/25 09:28:20;;;;;;;6.43;6.20;;;39.40;38.00;;;;;;5011404;28;20432;-92
2023/06/25 09:30:46;;;;;;;6.03;5.80;;;39.50;37.90;;;;;;4999788;28;20486;-93
2023/06/25 09:33:24;;;;;;;5.70;5.60;;;39.50;38.10;;;;;;5003760;28;20416;-92
2023/06/25 09:35:57;;;;;;;5.20;5.10;;;39.40;37.90;;;;;;5011097;28;20447;-92
2023/06/25 09:38:24;;;;;;;5.17;4.97;;;39.70;37.40;;;;;;4983974;28;20463;-92
2023/06/25 09:40:58;;;;;;;5.60;5.50;;;39.70;37.60;;;;;;5001246;28;20438;-92
2023/06/25 09:43:25;;;;;;;5.50;5.30;;;39.70;37.10;;;;;;5014734;28;20439;-91
2023/06/25 09:45:52;;;;;;;5.87;5.37;;;39.70;37.30;;;;;;5014086;28;20510;-92
2023/06/25 09:48:22;;;;;;;4.90;4.90;;;39.50;36.70;;;;;;5011311;28;20431;-94
2023/06/25 09:50:50;;;;;;;5.77;5.60;;;39.20;37.00;;;;;;5000476;28;20455;-93
2023/06/25 09:53:18;;;;;;;6.10;6.00;;;38.90;37.20;;;;;;5017443;28;20664;-92
2023/06/25 09:55:45;;;;;;;5.87;5.77;;;38.60;37.10;;;;;;5001390;28;20525;-91
2023/06/25 09:58:12;;;;;;;5.47;5.37;;;38.40;37.70;;;;;;5002215;28;20420;-93
2023/06/25 10:00:39;;;;;;;5.70;5.60;;;39.50;37.50;;;;;;5015974;28;20462;-92
2023/06/25 10:03:12;;;;;;;5.80;5.30;;;40.10;37.20;;;;;;5026221;28;20412;-91
2023/06/25 10:05:38;;;;;;;5.40;5.30;;;40.10;36.60;;;;;;5011677;28;20514;-92
2023/06/25 10:08:04;;;;;;;5.20;5.10;;;41.00;36.30;;;;;;5025741;28;20436;-92
2023/06/25 10:10:34;;;;;;;5.07;5.07;;;41.10;36.30;;;;;;5023681;28;20840;-91
2023/06/25 10:13:05;;;;;;;5.50;5.40;;;41.20;39.30;;;;;;5016603;28;20185;-89
2023/06/25 10:15:35;;;;;;;4.77;4.67;;;41.40;39.70;;;;;;4991065;23;21202;-77
2023/06/25 10:18:07;;;;;;;4.90;4.80;;;41.60;39.30;;;;;;4938915;29;20922;-77
2023/06/25 10:20:43;;;;;;;5.57;5.47;;;42.20;39.10;;;;;;4942386;29;20431;-77
2023/06/25 10:23:11;;;;;;;4.67;4.67;;;42.30;38.70;;;;;;4929341;28;20485;-78
2023/06/25 10:25:40;;;;;;;5.20;5.10;;;42.80;38.00;;;;;;4940999;28;20449;-77
2023/06/25 10:28:12;;;;;;;5.33;5.03;;;42.30;37.90;;;;;;4926861;28;20642;-76
2023/06/25 10:30:40;;;;;;;5.50;5.03;;;42.50;37.40;;;;;;4943338;29;20470;-77
2023/06/25 10:33:06;;;;;;;4.90;4.90;;;42.40;36.50;;;;;;4916897;29;20482;-76
2023/06/25 10:35:38;;;;;;;6.10;5.90;;;42.40;36.50;;;;;;4927456;29;20426;-77
2023/06/25 10:38:04;;;;;;;5.40;5.20;;;42.40;36.60;;;;;;4927368;29;20961;-77
2023/06/25 10:40:38;;;;;;;4.20;4.03;;;42.20;37.30;;;;;;4943980;28;20493;-76
2023/06/25 10:43:04;;;;;;;5.50;5.40;;;42.00;36.90;;;;;;4931040;29;20194;-77
2023/06/25 10:45:31;;;;;;;4.10;4.00;;;40.80;37.50;;;;;;4942480;28;20512;-77
2023/06/25 10:48:01;;;;;;;7.13;6.83;;;41.70;38.00;;;;;;4929086;29;20430;-78
2023/06/25 10:50:30;;;;;;;5.67;5.37;;;42.70;39.00;;;;;;4942292;28;20474;-78
2023/06/25 10:53:00;;;;;;;6.70;6.40;;;43.50;34.90;;;;;;4945479;28;20981;-77
2023/06/25 10:55:28;;;;;;;5.50;5.40;;;44.00;34.80;;;;;;4943586;29;20438;-79
2023/06/25 10:57:55;;;;;;;4.90;4.90;;;43.90;34.50;;;;;;4929339;29;20546;-78
2023/06/25 11:00:33;;;;;;;5.87;5.67;;;43.40;34.70;;;;;;4927670;29;20470;-79
2023/06/25 11:02:58;;;;;;;5.30;5.20;;;43.20;34.30;;;;;;4946686;28;20450;-77
2023/06/25 11:05:46;;;;;;;5.27;5.20;;;43.40;34.20;;;;;;4927110;29;20466;-78
2023/06/25 11:08:13;;;;;;;5.20;5.10;;;42.90;34.20;;;;;;4945082;28;20190;-78
2023/06/25 11:10:40;;;;;;;4.87;4.83;;;42.60;34.40;;;;;;4944761;28;20621;-77
2023/06/25 11:13:09;;;;;;;5.43;5.33;;;42.50;34.40;;;;;;4926816;29;20445;-77
2023/06/25 11:15:35;;;;;;;4.60;4.60;;;43.00;34.60;;;;;;4927337;28;20467;-76
2023/06/25 11:18:03;;;;;;;5.20;5.20;;;43.50;34.30;;;;;;4944926;29;20832;-78
2023/06/25 11:20:29;;;;;;;5.20;5.00;;;43.30;34.50;;;;;;4943509;28;20464;-77
2023/06/25 11:22:55;;;;;;;5.70;5.60;;;43.40;34.50;;;;;;4941920;28;20976;-77
2023/06/25 11:25:21;;;;;;;5.87;5.50;;;42.80;34.40;;;;;;4941978;28;20741;-77
2023/06/25 11:27:48;;;;;;;5.10;5.00;;;42.80;34.30;;;;;;4946925;29;20433;-77
2023/06/25 11:30:14;;;;;;;5.70;5.60;;;43.20;34.50;;;;;;4939098;28;20466;-76
2023/06/25 11:32:40;;;;;;;5.33;5.13;;;43.60;34.40;;;;;;4928220;29;20426;-77
2023/06/25 11:35:10;;;;;;;5.37;5.17;;;43.70;34.10;;;;;;4941944;29;20619;-77
2023/06/25 11:37:43;;;;;;;5.47;5.37;;;43.20;34.10;;;;;;4945744;28;20316;-78
2023/06/25 11:40:23;;;;;;;5.40;5.20;;;43.00;34.20;;;;;;4922150;29;20447;-77
2023/06/25 11:42:49;;;;;;;5.63;5.53;;;42.60;35.20;;;;;;4946363;29;21138;-76
2023/06/25 11:45:15;;;;;;;5.80;5.60;;;43.30;38.00;;;;;;4941337;29;20450;-78
2023/06/25 11:47:57;;;;;;;;;;;;;;;;;;;;;
2023/06/25 11:50:24;;;;;;;5.67;5.47;;;43.50;37.30;;;;;;4923834;29;20486;-79
2023/06/25 11:52:53;;;;;;;5.20;5.10;;;43.60;36.40;;;;;;4927999;29;21024;-78
2023/06/25 11:55:21;;;;;;;16.63;15.60;;;43.20;36.50;;;;;;4942794;28;20446;-77
2023/06/25 11:57:50;;;;;;;5.40;5.30;;;43.40;37.20;;;;;;4946744;29;20493;-78
2023/06/25 12:00:18;;;;;;;5.30;5.20;;;43.90;37.40;;;;;;4941013;28;20438;-77
2023/06/25 12:02:44;;;;;;;4.90;4.70;;;43.90;36.50;;;;;;4930144;29;21723;-77
2023/06/25 12:05:09;;;;;;;4.27;4.27;;;43.60;37.10;;;;;;4943044;28;20472;-77
2023/06/25 12:07:35;;;;;;;4.90;4.70;;;43.20;36.90;;;;;;4946457;28;20262;-77
2023/06/25 12:10:01;;;;;;;5.30;5.10;;;42.60;37.10;;;;;;4941742;29;20685;-78
2023/06/25 12:12:27;;;;;;;4.97;4.87;;;43.00;37.10;;;;;;4929617;29;20675;-77
2023/06/25 12:14:52;;;;;;;6.67;6.37;;;43.00;37.00;;;;;;4942632;29;20528;-77
2023/06/25 12:17:18;;;;;;;4.73;4.63;;;43.70;36.90;;;;;;4945492;28;20581;-77
2023/06/25 12:19:44;;;;;;;6.53;6.13;;;43.60;36.30;;;;;;4943128;29;20659;-76
2023/06/25 12:22:10;;;;;;;4.77;4.67;;;43.30;36.00;;;;;;4925330;28;20253;-77
2023/06/25 12:24:35;;;;;;;5.63;5.53;;;42.80;35.80;;;;;;4925016;29;20282;-77
2023/06/25 12:27:01;;;;;;;4.70;4.53;;;42.50;36.30;;;;;;4920280;28;20670;-79
2023/06/25 12:29:27;;;;;;;4.57;4.57;;;43.30;36.20;;;;;;4944924;28;20182;-79
2023/06/25 12:31:52;;;;;;;5.47;5.37;;;43.40;35.60;;;;;;4932969;28;20194;-78
2023/06/25 12:34:21;;;;;;;5.03;4.90;;;43.60;35.80;;;;;;4923180;29;20182;-78
2023/06/25 12:36:47;;;;;;;5.00;4.80;;;44.20;35.50;;;;;;4938499;28;21048;-79
2023/06/25 12:39:13;;;;;;;5.17;5.07;;;43.80;36.10;;;;;;4939212;28;20467;-78
2023/06/25 12:41:38;;;;;;;5.87;5.77;;;43.90;36.00;;;;;;4939414;29;20198;-78
2023/06/25 12:44:04;;;;;;;4.70;4.60;;;43.80;35.70;;;;;;4923834;29;20457;-78
2023/06/25 12:46:30;;;;;;;5.60;5.37;;;44.30;36.00;;;;;;4936690;28;20570;-79
2023/06/25 12:48:55;;;;;;;5.13;5.03;;;44.70;36.20;;;;;;4939530;28;20285;-78